createdAt,value
2022-09-28T00:00:22.283Z,0.00
2022-09-28T00:01:22.308Z,0.00
2022-09-28T00:02:22.352Z,0.00
2022-09-28T00:03:22.234Z,0.00
2022-09-28T00:04:22.212Z,0.00
2022-09-28T00:05:22.226Z,0.00
2022-09-28T00:06:22.203Z,0.00
2022-09-28T00:07:22.181Z,0.00
2022-09-28T00:08:22.167Z,0.00
2022-09-28T00:09:22.144Z,0.00
2022-09-28T00:10:22.132Z,0.00
2022-09-28T00:11:22.144Z,0.00
2022-09-28T00:12:22.181Z,0.00
2022-09-28T00:13:22.111Z,0.00
2022-09-28T00:14:22.111Z,0.00
2022-09-28T00:15:22.087Z,0.00
2022-09-28T00:16:22.138Z,0.00
2022-09-28T00:17:22.036Z,0.00
2022-09-28T00:18:22.026Z,0.00
2022-09-28T00:19:22.040Z,0.00
2022-09-28T00:20:22.001Z,0.00
2022-09-28T00:21:22.053Z,0.00
2022-09-28T00:22:21.983Z,0.00
2022-09-28T00:23:21.959Z,0.00
2022-09-28T00:24:26.633Z,0.00
2022-09-28T00:25:21.999Z,0.00
2022-09-28T00:26:21.926Z,0.00
2022-09-28T00:27:21.901Z,0.00
2022-09-28T00:28:21.925Z,0.00
2022-09-28T00:29:21.884Z,0.00
2022-09-28T00:30:21.878Z,0.00
2022-09-28T00:31:21.932Z,0.00
2022-09-28T00:32:21.840Z,0.00
2022-09-28T00:33:21.835Z,0.00
2022-09-28T00:34:22.704Z,0.00
2022-09-28T00:35:21.799Z,0.00
2022-09-28T00:36:21.829Z,0.00
2022-09-28T00:37:21.820Z,0.00
2022-09-28T00:38:21.821Z,0.00
2022-09-28T00:39:21.770Z,0.00
2022-09-28T00:40:21.828Z,0.00
2022-09-28T00:41:21.759Z,0.00
2022-09-28T00:42:21.738Z,0.00
2022-09-28T00:43:21.723Z,0.00
2022-09-28T00:44:21.698Z,0.00
2022-09-28T00:45:21.673Z,0.00
2022-09-28T00:46:21.656Z,0.00
2022-09-28T00:47:21.664Z,0.00
2022-09-28T00:48:21.679Z,0.00
2022-09-28T00:49:21.649Z,0.00
2022-09-28T00:50:21.621Z,0.00
2022-09-28T00:51:21.625Z,0.00
2022-09-28T00:52:21.621Z,0.00
2022-09-28T00:53:21.575Z,0.00
2022-09-28T00:54:21.577Z,0.00
2022-09-28T00:55:21.554Z,0.00
2022-09-28T00:56:21.546Z,0.00
2022-09-28T00:57:21.557Z,0.00
2022-09-28T00:58:21.538Z,0.00
2022-09-28T00:59:21.497Z,0.00
2022-09-28T01:00:21.506Z,0.00
2022-09-28T01:01:21.520Z,0.00
2022-09-28T01:02:21.559Z,0.00
2022-09-28T01:03:21.471Z,0.00
2022-09-28T01:04:21.474Z,0.00
2022-09-28T01:05:21.435Z,0.00
2022-09-28T01:06:21.398Z,0.00
2022-09-28T01:07:21.408Z,0.00
2022-09-28T01:08:21.381Z,0.00
2022-09-28T01:09:21.354Z,0.00
2022-09-28T01:10:21.414Z,0.00
2022-09-28T01:11:21.419Z,0.00
2022-09-28T01:12:21.338Z,0.00
2022-09-28T01:13:21.364Z,0.00
2022-09-28T01:14:21.338Z,0.00
2022-09-28T01:15:21.280Z,0.00
2022-09-28T01:16:21.311Z,0.00
2022-09-28T01:17:21.304Z,0.00
2022-09-28T01:18:21.266Z,0.00
2022-09-28T01:19:21.396Z,0.00
2022-09-28T01:20:21.239Z,0.00
2022-09-28T01:21:21.230Z,0.00
2022-09-28T01:22:21.242Z,0.00
2022-09-28T01:23:21.211Z,0.00
2022-09-28T01:24:21.228Z,0.00
2022-09-28T01:25:21.179Z,0.00
2022-09-28T01:26:21.152Z,0.00
2022-09-28T01:27:21.144Z,0.00
2022-09-28T01:28:21.124Z,0.00
2022-09-28T01:29:21.124Z,0.00
2022-09-28T01:30:21.105Z,0.00
2022-09-28T01:31:21.197Z,0.00
2022-09-28T01:32:21.144Z,0.00
2022-09-28T01:33:21.121Z,0.00
2022-09-28T01:34:21.111Z,0.00
2022-09-28T01:35:21.073Z,0.00
2022-09-28T01:36:21.018Z,0.00
2022-09-28T01:37:21.042Z,0.00
2022-09-28T01:38:20.982Z,0.00
2022-09-28T01:39:20.989Z,0.00
2022-09-28T01:40:21.002Z,0.00
2022-09-28T01:41:20.961Z,0.00
2022-09-28T01:42:20.964Z,0.00
2022-09-28T01:43:20.940Z,0.00
2022-09-28T01:44:20.910Z,0.00
2022-09-28T01:45:20.928Z,0.00
2022-09-28T01:46:20.988Z,0.00
2022-09-28T01:47:20.898Z,0.00
2022-09-28T01:48:20.846Z,0.00
2022-09-28T01:49:20.873Z,0.00
2022-09-28T01:50:20.865Z,0.00
2022-09-28T01:51:20.835Z,0.00
2022-09-28T01:52:20.788Z,0.00
2022-09-28T01:53:20.826Z,0.00
2022-09-28T01:54:20.779Z,0.00
2022-09-28T01:55:20.765Z,0.00
2022-09-28T01:56:20.829Z,0.00
2022-09-28T01:57:20.752Z,0.00
2022-09-28T01:58:20.743Z,0.00
2022-09-28T01:59:20.783Z,0.00
2022-09-28T02:00:20.691Z,0.00
2022-09-28T02:01:20.742Z,0.00
2022-09-28T02:02:20.835Z,0.00
2022-09-28T02:03:20.667Z,0.00
2022-09-28T02:04:20.654Z,0.00
2022-09-28T02:05:20.635Z,0.00
2022-09-28T02:06:20.627Z,0.00
2022-09-28T02:07:20.618Z,0.00
2022-09-28T02:08:20.594Z,0.00
2022-09-28T02:09:20.591Z,0.00
2022-09-28T02:10:20.583Z,0.00
2022-09-28T02:11:20.564Z,0.00
2022-09-28T02:12:20.589Z,0.00
2022-09-28T02:13:20.556Z,0.00
2022-09-28T02:14:20.506Z,0.00
2022-09-28T02:15:20.546Z,0.00
2022-09-28T02:16:20.553Z,0.00
2022-09-28T02:17:20.471Z,0.00
2022-09-28T02:18:20.495Z,0.00
2022-09-28T02:19:20.469Z,0.00
2022-09-28T02:20:20.435Z,0.00
2022-09-28T02:21:20.431Z,0.00
2022-09-28T02:22:20.398Z,0.00
2022-09-28T02:23:20.403Z,0.00
2022-09-28T02:24:21.658Z,0.00
2022-09-28T02:25:20.370Z,0.00
2022-09-28T02:26:20.340Z,0.00
2022-09-28T02:27:20.392Z,0.00
2022-09-28T02:28:20.359Z,0.00
2022-09-28T02:29:20.332Z,0.00
2022-09-28T02:30:20.312Z,0.00
2022-09-28T02:31:20.323Z,0.00
2022-09-28T02:32:20.311Z,0.00
2022-09-28T02:33:20.259Z,0.00
2022-09-28T02:34:20.271Z,0.00
2022-09-28T02:35:20.247Z,0.00
2022-09-28T02:36:20.217Z,0.00
2022-09-28T02:37:20.227Z,0.00
2022-09-28T02:38:20.216Z,0.00
2022-09-28T02:39:20.190Z,0.00
2022-09-28T02:40:20.224Z,0.00
2022-09-28T02:41:20.179Z,0.00
2022-09-28T02:42:20.153Z,0.00
2022-09-28T02:43:20.142Z,0.00
2022-09-28T02:44:20.133Z,0.00
2022-09-28T02:45:20.169Z,0.00
2022-09-28T02:46:20.192Z,0.00
2022-09-28T02:47:20.104Z,0.00
2022-09-28T02:48:35.949Z,0.00
2022-09-28T02:49:22.313Z,0.00
2022-09-28T02:50:20.045Z,0.00
2022-09-28T02:51:20.054Z,0.00
2022-09-28T02:52:20.042Z,0.00
2022-09-28T02:53:20.021Z,0.00
2022-09-28T02:54:20.022Z,0.00
2022-09-28T02:55:19.999Z,0.00
2022-09-28T02:56:19.954Z,0.00
2022-09-28T02:57:19.991Z,0.00
2022-09-28T02:58:19.938Z,0.00
2022-09-28T02:59:19.932Z,0.00
2022-09-28T03:00:19.917Z,0.00
2022-09-28T03:01:19.985Z,0.00
2022-09-28T03:02:20.000Z,0.00
2022-09-28T03:03:19.863Z,0.00
2022-09-28T03:04:19.851Z,0.00
2022-09-28T03:05:19.856Z,0.00
2022-09-28T03:06:19.828Z,0.00
2022-09-28T03:07:19.822Z,0.00
2022-09-28T03:08:19.820Z,0.00
2022-09-28T03:09:19.801Z,0.00
2022-09-28T03:10:19.789Z,0.00
2022-09-28T03:11:19.779Z,0.00
2022-09-28T03:12:19.743Z,0.00
2022-09-28T03:13:19.738Z,0.00
2022-09-28T03:14:19.732Z,0.00
2022-09-28T03:15:19.705Z,0.00
2022-09-28T03:16:19.797Z,0.00
2022-09-28T03:17:19.715Z,0.00
2022-09-28T03:18:19.683Z,0.00
2022-09-28T03:19:19.658Z,0.00
2022-09-28T03:20:19.663Z,0.00
2022-09-28T03:21:19.643Z,0.00
2022-09-28T03:22:19.685Z,0.00
2022-09-28T03:23:24.679Z,0.00
2022-09-28T03:24:19.609Z,0.00
2022-09-28T03:25:19.612Z,0.00
2022-09-28T03:26:19.584Z,0.00
2022-09-28T03:27:19.721Z,0.00
2022-09-28T03:28:19.555Z,0.00
2022-09-28T03:29:19.526Z,0.00
2022-09-28T03:30:19.516Z,0.00
2022-09-28T03:31:19.607Z,0.00
2022-09-28T03:32:19.509Z,0.00
2022-09-28T03:33:19.493Z,0.00
2022-09-28T03:34:19.464Z,0.00
2022-09-28T03:35:19.465Z,0.00
2022-09-28T03:36:19.453Z,0.00
2022-09-28T03:37:19.447Z,0.00
2022-09-28T03:38:19.439Z,0.00
2022-09-28T03:39:19.408Z,0.00
2022-09-28T03:40:19.418Z,0.00
2022-09-28T03:41:19.397Z,0.00
2022-09-28T03:42:19.356Z,0.00
2022-09-28T03:43:19.389Z,0.00
2022-09-28T03:44:19.353Z,0.00
2022-09-28T03:45:19.338Z,0.00
2022-09-28T03:46:19.447Z,0.00
2022-09-28T03:47:19.314Z,0.00
2022-09-28T03:48:23.939Z,0.00
2022-09-28T03:49:19.276Z,0.00
2022-09-28T03:50:19.305Z,0.00
2022-09-28T03:51:19.258Z,0.00
2022-09-28T03:52:19.237Z,0.00
2022-09-28T03:53:19.228Z,0.00
2022-09-28T03:54:19.196Z,0.00
2022-09-28T03:55:19.204Z,0.00
2022-09-28T03:56:19.182Z,0.00
2022-09-28T03:57:19.163Z,0.00
2022-09-28T03:58:19.143Z,0.00
2022-09-28T03:59:19.162Z,0.00
2022-09-28T04:00:19.130Z,0.00
2022-09-28T04:01:19.216Z,0.00
2022-09-28T04:02:19.186Z,0.00
2022-09-28T04:03:19.105Z,0.00
2022-09-28T04:04:19.078Z,0.00
2022-09-28T04:05:19.066Z,0.00
2022-09-28T04:06:19.060Z,0.00
2022-09-28T04:07:19.050Z,0.00
2022-09-28T04:08:19.028Z,0.00
2022-09-28T04:09:19.021Z,0.00
2022-09-28T04:10:19.008Z,0.00
2022-09-28T04:11:18.982Z,0.00
2022-09-28T04:12:18.985Z,0.00
2022-09-28T04:13:18.975Z,0.00
2022-09-28T04:14:18.952Z,0.00
2022-09-28T04:15:18.925Z,0.00
2022-09-28T04:16:18.993Z,0.00
2022-09-28T04:17:18.909Z,0.00
2022-09-28T04:18:18.882Z,0.00
2022-09-28T04:19:18.935Z,0.00
2022-09-28T04:20:18.865Z,0.00
2022-09-28T04:21:18.879Z,0.00
2022-09-28T04:22:18.842Z,0.00
2022-09-28T04:23:18.842Z,0.00
2022-09-28T04:24:18.815Z,0.00
2022-09-28T04:25:18.827Z,0.00
2022-09-28T04:26:18.793Z,0.00
2022-09-28T04:27:18.797Z,0.00
2022-09-28T04:28:18.773Z,0.00
2022-09-28T04:29:19.099Z,0.00
2022-09-28T04:30:18.740Z,4.00
2022-09-28T04:31:18.828Z,4.00
2022-09-28T04:32:18.731Z,4.00
2022-09-28T04:33:18.693Z,0.00
2022-09-28T04:34:18.673Z,4.00
2022-09-28T04:35:18.666Z,4.00
2022-09-28T04:36:18.667Z,4.00
2022-09-28T04:37:18.635Z,8.00
2022-09-28T04:38:35.667Z,4.00
2022-09-28T04:39:18.799Z,8.00
2022-09-28T04:40:18.665Z,8.00
2022-09-28T04:41:18.597Z,8.00
2022-09-28T04:42:18.571Z,8.00
2022-09-28T04:43:18.576Z,12.00
2022-09-28T04:44:18.587Z,16.00
2022-09-28T04:45:18.558Z,12.00
2022-09-28T04:46:18.567Z,12.00
2022-09-28T04:47:18.526Z,16.00
2022-09-28T04:48:18.489Z,16.00
2022-09-28T04:49:18.688Z,20.00
2022-09-28T04:50:18.463Z,24.00
2022-09-28T04:51:18.497Z,28.00
2022-09-28T04:52:18.810Z,32.00
2022-09-28T04:53:18.459Z,32.00
2022-09-28T04:54:18.470Z,36.00
2022-09-28T04:55:18.424Z,44.00
2022-09-28T04:56:18.419Z,56.00
2022-09-28T04:57:18.377Z,64.00
2022-09-28T04:58:18.380Z,72.00
2022-09-28T04:59:18.572Z,76.00
2022-09-28T05:00:18.344Z,84.00
2022-09-28T05:01:18.425Z,88.00
2022-09-28T05:02:18.385Z,100.00
2022-09-28T05:03:18.312Z,104.00
2022-09-28T05:04:21.297Z,116.00
2022-09-28T05:05:18.305Z,132.00
2022-09-28T05:06:18.257Z,148.00
2022-09-28T05:07:18.263Z,168.00
2022-09-28T05:08:18.233Z,192.00
2022-09-28T05:09:18.400Z,216.00
2022-09-28T05:10:18.328Z,240.00
2022-09-28T05:11:18.204Z,256.00
2022-09-28T05:12:18.192Z,260.00
2022-09-28T05:13:18.176Z,264.00
2022-09-28T05:14:18.175Z,272.00
2022-09-28T05:15:18.141Z,276.00
2022-09-28T05:16:18.169Z,284.00
2022-09-28T05:17:18.154Z,292.00
2022-09-28T05:18:18.125Z,304.00
2022-09-28T05:19:18.206Z,328.00
2022-09-28T05:20:18.140Z,372.00
2022-09-28T05:21:18.072Z,412.00
2022-09-28T05:22:18.075Z,444.00
2022-09-28T05:23:18.062Z,476.00
2022-09-28T05:24:18.055Z,500.00
2022-09-28T05:25:18.005Z,524.00
2022-09-28T05:26:18.005Z,548.00
2022-09-28T05:27:17.999Z,572.00
2022-09-28T05:28:18.003Z,612.00
2022-09-28T05:29:18.122Z,660.00
2022-09-28T05:30:17.970Z,712.00
2022-09-28T05:31:18.037Z,776.00
2022-09-28T05:32:17.951Z,828.00
2022-09-28T05:33:17.904Z,872.00
2022-09-28T05:34:17.952Z,924.00
2022-09-28T05:35:17.900Z,992.00
2022-09-28T05:36:17.865Z,1060.00
2022-09-28T05:37:17.853Z,1136.00
2022-09-28T05:38:17.868Z,1224.00
2022-09-28T05:39:18.057Z,1316.00
2022-09-28T05:40:17.882Z,1368.00
2022-09-28T05:41:17.813Z,1420.00
2022-09-28T05:42:17.805Z,1452.00
2022-09-28T05:43:17.812Z,1448.00
2022-09-28T05:44:17.912Z,1444.00
2022-09-28T05:45:17.765Z,1544.00
2022-09-28T05:46:17.845Z,1704.00
2022-09-28T05:47:17.727Z,1836.00
2022-09-28T05:48:17.730Z,1916.00
2022-09-28T05:49:17.716Z,2020.00
2022-09-28T05:50:17.694Z,2096.00
2022-09-28T05:51:17.666Z,2152.00
2022-09-28T05:52:17.681Z,2240.00
2022-09-28T05:53:17.654Z,2316.00
2022-09-28T05:54:17.940Z,2312.00
2022-09-28T05:55:17.613Z,2284.00
2022-09-28T05:56:17.649Z,2180.00
2022-09-28T05:57:17.651Z,2084.00
2022-09-28T05:58:17.595Z,2052.00
2022-09-28T05:59:17.589Z,2128.00
2022-09-28T06:00:17.564Z,2124.00
2022-09-28T06:01:17.666Z,2240.00
2022-09-28T06:02:17.656Z,2264.00
2022-09-28T06:03:17.597Z,2240.00
2022-09-28T06:04:17.667Z,2236.00
2022-09-28T06:05:17.490Z,2288.00
2022-09-28T06:06:17.496Z,2320.00
2022-09-28T06:07:17.494Z,2352.00
2022-09-28T06:08:17.501Z,2380.00
2022-09-28T06:09:17.509Z,2396.00
2022-09-28T06:10:17.437Z,2416.00
2022-09-28T06:11:17.437Z,2440.00
2022-09-28T06:12:17.484Z,2456.00
2022-09-28T06:13:17.434Z,2460.00
2022-09-28T06:14:17.457Z,2468.00
2022-09-28T06:15:17.454Z,2480.00
2022-09-28T06:16:17.447Z,2508.00
2022-09-28T06:17:17.332Z,2536.00
2022-09-28T06:18:17.321Z,2564.00
2022-09-28T06:19:17.342Z,2588.00
2022-09-28T06:20:17.340Z,2612.00
2022-09-28T06:21:17.293Z,2636.00
2022-09-28T06:22:17.284Z,2664.00
2022-09-28T06:23:17.259Z,2708.00
2022-09-28T06:24:17.409Z,2772.00
2022-09-28T06:25:17.248Z,2836.00
2022-09-28T06:26:17.250Z,2860.00
2022-09-28T06:27:17.211Z,2880.00
2022-09-28T06:28:17.225Z,2884.00
2022-09-28T06:29:19.437Z,2860.00
2022-09-28T06:30:17.206Z,2828.00
2022-09-28T06:31:17.336Z,2808.00
2022-09-28T06:32:17.161Z,2816.00
2022-09-28T06:33:17.136Z,2832.00
2022-09-28T06:34:17.246Z,2840.00
2022-09-28T06:35:17.159Z,2860.00
2022-09-28T06:36:17.136Z,2876.00
2022-09-28T06:37:17.130Z,2896.00
2022-09-28T06:38:17.118Z,2904.00
2022-09-28T06:39:17.074Z,2908.00
2022-09-28T06:40:17.141Z,2916.00
2022-09-28T06:41:17.041Z,2912.00
2022-09-28T06:42:17.096Z,2928.00
2022-09-28T06:43:17.016Z,2940.00
2022-09-28T06:44:17.157Z,2952.00
2022-09-28T06:45:16.997Z,2964.00
2022-09-28T06:46:17.062Z,2976.00
2022-09-28T06:47:17.020Z,2992.00
2022-09-28T06:48:17.490Z,3016.00
2022-09-28T06:49:19.602Z,3036.00
2022-09-28T06:50:16.923Z,3064.00
2022-09-28T06:51:17.441Z,3092.00
2022-09-28T06:52:16.910Z,3124.00
2022-09-28T06:53:16.854Z,3168.00
2022-09-28T06:54:17.066Z,3212.00
2022-09-28T06:55:16.828Z,3248.00
2022-09-28T06:56:16.869Z,3276.00
2022-09-28T06:57:16.810Z,3300.00
2022-09-28T06:58:16.824Z,3332.00
2022-09-28T06:59:16.806Z,3360.00
2022-09-28T07:00:16.784Z,3388.00
2022-09-28T07:01:16.863Z,3424.00
2022-09-28T07:02:16.833Z,3456.00
2022-09-28T07:03:16.748Z,3480.00
2022-09-28T07:04:16.864Z,3520.00
2022-09-28T07:05:16.758Z,3576.00
2022-09-28T07:06:16.723Z,3652.00
2022-09-28T07:07:16.696Z,3732.00
2022-09-28T07:08:16.666Z,3796.00
2022-09-28T07:09:31.870Z,3848.00
2022-09-28T07:10:16.685Z,3888.00
2022-09-28T07:11:16.645Z,3908.00
2022-09-28T07:12:16.629Z,3988.00
2022-09-28T07:13:36.622Z,4080.00
2022-09-28T07:14:31.674Z,4224.00
2022-09-28T07:15:16.598Z,4336.00
2022-09-28T07:16:16.654Z,4464.00
2022-09-28T07:17:16.620Z,4620.00
2022-09-28T07:18:16.610Z,4740.00
2022-09-28T07:19:16.590Z,4864.00
2022-09-28T07:20:19.443Z,5008.00
2022-09-28T07:21:28.098Z,5192.00
2022-09-28T07:22:19.299Z,5380.00
2022-09-28T07:23:19.587Z,5544.00
2022-09-28T07:24:16.480Z,5724.00
2022-09-28T07:25:16.461Z,5912.00
2022-09-28T07:26:19.631Z,6128.00
2022-09-28T07:27:16.488Z,6324.00
2022-09-28T07:28:16.433Z,6484.00
2022-09-28T07:29:16.412Z,6656.00
2022-09-28T07:30:16.407Z,6840.00
2022-09-28T07:31:16.439Z,7028.00
2022-09-28T07:32:16.362Z,7208.00
2022-09-28T07:33:16.363Z,7360.00
2022-09-28T07:34:16.368Z,7568.00
2022-09-28T07:35:16.333Z,7648.00
2022-09-28T07:36:16.318Z,7820.00
2022-09-28T07:37:16.313Z,8276.00
2022-09-28T07:38:16.273Z,8732.00
2022-09-28T07:39:16.249Z,8836.00
2022-09-28T07:40:16.309Z,8856.00
2022-09-28T07:41:16.221Z,8988.00
2022-09-28T07:42:16.227Z,9204.00
2022-09-28T07:43:16.232Z,9196.00
2022-09-28T07:44:16.241Z,9544.00
2022-09-28T07:45:16.179Z,9656.00
2022-09-28T07:46:16.257Z,9888.00
2022-09-28T07:47:16.157Z,10100.00
2022-09-28T07:48:16.179Z,10488.00
2022-09-28T07:49:16.153Z,10980.00
2022-09-28T07:50:16.147Z,10932.00
2022-09-28T07:51:16.119Z,11052.00
2022-09-28T07:52:16.140Z,11120.00
2022-09-28T07:53:16.125Z,11248.00
2022-09-28T07:54:16.105Z,11464.00
2022-09-28T07:55:16.076Z,11448.00
2022-09-28T07:56:16.088Z,11348.00
2022-09-28T07:57:16.016Z,11392.00
2022-09-28T07:58:16.060Z,11420.00
2022-09-28T07:59:15.988Z,11556.00
2022-09-28T08:00:16.010Z,11892.00
2022-09-28T08:01:15.993Z,12108.00
2022-09-28T08:02:16.008Z,12320.00
2022-09-28T08:03:15.963Z,12512.00
2022-09-28T08:04:15.946Z,12828.00
2022-09-28T08:05:15.905Z,13116.00
2022-09-28T08:06:15.920Z,13312.00
2022-09-28T08:07:17.130Z,13752.00
2022-09-28T08:08:15.876Z,14524.00
2022-09-28T08:09:15.908Z,14820.00
2022-09-28T08:10:15.873Z,15000.00
2022-09-28T08:11:15.866Z,15824.00
2022-09-28T08:12:15.848Z,16928.00
2022-09-28T08:13:15.817Z,17088.00
2022-09-28T08:14:15.847Z,17248.00
2022-09-28T08:15:15.792Z,16960.00
2022-09-28T08:16:15.881Z,16928.00
2022-09-28T08:17:15.803Z,17536.00
2022-09-28T08:18:15.779Z,17504.00
2022-09-28T08:19:15.828Z,18176.00
2022-09-28T08:20:15.726Z,18976.00
2022-09-28T08:21:15.714Z,18912.00
2022-09-28T08:22:15.723Z,18656.00
2022-09-28T08:23:15.689Z,18304.00
2022-09-28T08:24:15.713Z,18848.00
2022-09-28T08:25:15.719Z,18048.00
2022-09-28T08:26:15.843Z,18336.00
2022-09-28T08:27:15.615Z,17920.00
2022-09-28T08:28:15.633Z,17504.00
2022-09-28T08:29:15.601Z,18336.00
2022-09-28T08:30:15.604Z,20000.00
2022-09-28T08:31:15.621Z,19872.00
2022-09-28T08:32:15.581Z,20320.00
2022-09-28T08:33:15.563Z,19008.00
2022-09-28T08:34:15.591Z,18432.00
2022-09-28T08:35:15.524Z,18848.00
2022-09-28T08:36:15.540Z,18432.00
2022-09-28T08:37:15.641Z,18656.00
2022-09-28T08:38:15.495Z,18112.00
2022-09-28T08:39:15.449Z,19168.00
2022-09-28T08:40:15.729Z,30816.00
2022-09-28T08:41:15.467Z,31904.00
2022-09-28T08:42:15.456Z,28480.00
2022-09-28T08:43:15.431Z,29888.00
2022-09-28T08:44:15.538Z,29216.00
2022-09-28T08:45:15.401Z,25504.00
2022-09-28T08:46:15.524Z,24416.00
2022-09-28T08:47:15.497Z,25376.00
2022-09-28T08:48:15.594Z,23904.00
2022-09-28T08:49:30.757Z,19872.00
2022-09-28T08:50:15.378Z,17856.00
2022-09-28T08:51:16.120Z,16484.00
2022-09-28T08:52:15.357Z,15896.00
2022-09-28T08:53:15.286Z,15704.00
2022-09-28T08:54:15.350Z,15184.00
2022-09-28T08:55:15.261Z,14536.00
2022-09-28T08:56:15.262Z,14040.00
2022-09-28T08:57:15.228Z,13776.00
2022-09-28T08:58:15.218Z,13348.00
2022-09-28T08:59:15.202Z,13104.00
2022-09-28T09:00:15.185Z,12828.00
2022-09-28T09:01:15.232Z,12704.00
2022-09-28T09:02:15.436Z,12632.00
2022-09-28T09:03:15.155Z,12636.00
2022-09-28T09:04:15.148Z,12660.00
2022-09-28T09:05:15.134Z,12772.00
2022-09-28T09:06:18.335Z,13088.00
2022-09-28T09:07:15.107Z,13360.00
2022-09-28T09:08:15.081Z,13844.00
2022-09-28T09:09:15.071Z,15480.00
2022-09-28T09:10:15.061Z,17824.00
2022-09-28T09:11:15.064Z,18752.00
2022-09-28T09:12:15.032Z,19744.00
2022-09-28T09:13:15.000Z,22816.00
2022-09-28T09:14:15.080Z,24512.00
2022-09-28T09:15:14.996Z,25088.00
2022-09-28T09:16:15.007Z,29440.00
2022-09-28T09:17:15.032Z,27968.00
2022-09-28T09:18:17.821Z,27744.00
2022-09-28T09:19:14.919Z,26464.00
2022-09-28T09:20:14.910Z,25152.00
2022-09-28T09:21:14.896Z,23360.00
2022-09-28T09:22:14.923Z,23264.00
2022-09-28T09:23:14.919Z,23680.00
2022-09-28T09:24:14.908Z,24416.00
2022-09-28T09:25:14.839Z,29056.00
2022-09-28T09:26:17.051Z,34176.00
2022-09-28T09:27:14.841Z,40320.00
2022-09-28T09:28:14.817Z,46752.00
2022-09-28T09:29:14.817Z,46400.00
2022-09-28T09:30:17.939Z,51008.00
2022-09-28T09:31:14.844Z,55360.00
2022-09-28T09:32:14.797Z,56960.00
2022-09-28T09:33:14.806Z,56032.00
2022-09-28T09:34:14.927Z,54176.00
2022-09-28T09:35:14.733Z,51712.00
2022-09-28T09:36:14.705Z,50304.00
2022-09-28T09:37:14.721Z,47040.00
2022-09-28T09:38:14.692Z,44192.00
2022-09-28T09:39:14.669Z,43232.00
2022-09-28T09:40:14.686Z,41408.00
2022-09-28T09:41:14.813Z,43072.00
2022-09-28T09:42:14.611Z,46720.00
2022-09-28T09:43:14.629Z,32416.00
2022-09-28T09:44:14.683Z,21952.00
2022-09-28T09:45:14.578Z,26080.00
2022-09-28T09:46:14.668Z,30944.00
2022-09-28T09:47:14.568Z,26016.00
2022-09-28T09:48:14.691Z,19968.00
2022-09-28T09:49:14.571Z,19168.00
2022-09-28T09:50:14.555Z,25728.00
2022-09-28T09:51:14.504Z,20864.00
2022-09-28T09:52:14.486Z,18336.00
2022-09-28T09:53:14.470Z,18112.00
2022-09-28T09:54:14.552Z,18304.00
2022-09-28T09:55:14.458Z,19776.00
2022-09-28T09:56:14.425Z,17312.00
2022-09-28T09:57:14.445Z,18080.00
2022-09-28T09:58:14.405Z,19328.00
2022-09-28T09:59:14.430Z,21792.00
2022-09-28T10:00:14.627Z,28544.00
2022-09-28T10:01:14.472Z,29504.00
2022-09-28T10:02:14.449Z,29888.00
2022-09-28T10:03:14.551Z,30240.00
2022-09-28T10:04:14.336Z,27712.00
2022-09-28T10:05:14.664Z,29248.00
2022-09-28T10:06:14.654Z,32736.00
2022-09-28T10:07:14.700Z,43712.00
2022-09-28T10:08:14.407Z,35872.00
2022-09-28T10:09:14.475Z,35680.00
2022-09-28T10:10:14.621Z,31328.00
2022-09-28T10:11:14.680Z,33376.00
2022-09-28T10:12:14.464Z,29728.00
2022-09-28T10:13:14.598Z,28480.00
2022-09-28T10:14:14.292Z,28032.00
2022-09-28T10:15:14.234Z,27008.00
2022-09-28T10:16:14.505Z,24544.00
2022-09-28T10:17:14.587Z,25792.00
2022-09-28T10:18:14.196Z,27712.00
2022-09-28T10:19:14.569Z,33600.00
2022-09-28T10:20:14.525Z,24672.00
2022-09-28T10:21:14.257Z,22944.00
2022-09-28T10:22:14.131Z,22912.00
2022-09-28T10:23:14.141Z,23776.00
2022-09-28T10:24:14.306Z,23776.00
2022-09-28T10:25:14.160Z,24032.00
2022-09-28T10:26:14.141Z,23296.00
2022-09-28T10:27:14.285Z,23552.00
2022-09-28T10:28:14.289Z,23264.00
2022-09-28T10:29:14.260Z,23360.00
2022-09-28T10:30:14.230Z,23072.00
2022-09-28T10:31:14.236Z,21952.00
2022-09-28T10:32:14.312Z,20800.00
2022-09-28T10:33:14.307Z,19648.00
2022-09-28T10:34:14.269Z,18656.00
2022-09-28T10:35:14.100Z,17792.00
2022-09-28T10:36:14.176Z,16700.00
2022-09-28T10:37:14.199Z,15552.00
2022-09-28T10:38:14.232Z,14332.00
2022-09-28T10:39:14.244Z,13052.00
2022-09-28T10:40:14.801Z,11816.00
2022-09-28T10:41:14.274Z,10772.00
2022-09-28T10:42:14.330Z,10044.00
2022-09-28T10:43:14.229Z,9616.00
2022-09-28T10:44:14.184Z,9496.00
2022-09-28T10:45:14.268Z,9600.00
2022-09-28T10:46:13.989Z,9896.00
2022-09-28T10:47:13.800Z,10388.00
2022-09-28T10:48:13.834Z,11160.00
2022-09-28T10:49:13.746Z,12288.00
2022-09-28T10:50:13.725Z,12624.00
2022-09-28T10:51:13.695Z,13248.00
2022-09-28T10:52:13.692Z,13908.00
2022-09-28T10:53:13.703Z,14484.00
2022-09-28T10:54:13.848Z,14856.00
2022-09-28T10:55:13.735Z,15000.00
2022-09-28T10:56:13.649Z,14744.00
2022-09-28T10:57:13.793Z,14408.00
2022-09-28T10:58:13.768Z,14084.00
2022-09-28T10:59:13.606Z,13764.00
2022-09-28T11:00:13.612Z,13640.00
2022-09-28T11:01:13.776Z,13536.00
2022-09-28T11:02:13.789Z,13324.00
2022-09-28T11:03:14.514Z,13088.00
2022-09-28T11:04:13.750Z,12768.00
2022-09-28T11:05:13.678Z,12400.00
2022-09-28T11:06:13.737Z,11612.00
2022-09-28T11:07:15.380Z,10876.00
2022-09-28T11:08:13.769Z,10484.00
2022-09-28T11:09:13.775Z,10048.00
2022-09-28T11:10:13.872Z,9684.00
2022-09-28T11:11:13.705Z,9284.00
2022-09-28T11:12:13.720Z,8992.00
2022-09-28T11:13:13.639Z,8828.00
2022-09-28T11:14:13.704Z,8812.00
2022-09-28T11:15:13.600Z,8888.00
2022-09-28T11:16:13.504Z,9072.00
2022-09-28T11:17:13.460Z,9304.00
2022-09-28T11:18:13.539Z,9584.00
2022-09-28T11:19:13.328Z,9920.00
2022-09-28T11:20:13.337Z,10248.00
2022-09-28T11:21:13.356Z,10456.00
2022-09-28T11:22:14.070Z,10768.00
2022-09-28T11:23:13.326Z,11000.00
2022-09-28T11:24:18.036Z,11168.00
2022-09-28T11:25:13.276Z,11268.00
2022-09-28T11:26:18.459Z,11188.00
2022-09-28T11:27:13.287Z,11004.00
2022-09-28T11:28:13.248Z,10672.00
2022-09-28T11:29:13.290Z,10300.00
2022-09-28T11:30:13.193Z,9988.00
2022-09-28T11:31:13.236Z,9720.00
2022-09-28T11:32:15.842Z,9596.00
2022-09-28T11:33:13.935Z,9588.00
2022-09-28T11:34:13.229Z,9592.00
2022-09-28T11:35:13.229Z,9620.00
2022-09-28T11:36:13.173Z,9496.00
2022-09-28T11:37:13.133Z,9368.00
2022-09-28T11:38:13.080Z,9080.00
2022-09-28T11:39:13.114Z,8796.00
2022-09-28T11:40:13.066Z,8564.00
2022-09-28T11:41:13.047Z,8408.00
2022-09-28T11:42:16.256Z,8352.00
2022-09-28T11:43:15.771Z,8280.00
2022-09-28T11:44:13.041Z,8212.00
2022-09-28T11:45:13.042Z,8148.00
2022-09-28T11:46:13.059Z,8088.00
2022-09-28T11:47:12.970Z,8048.00
2022-09-28T11:48:12.998Z,8008.00
2022-09-28T11:49:12.982Z,7956.00
2022-09-28T11:50:12.982Z,7772.00
2022-09-28T11:51:12.948Z,7704.00
2022-09-28T11:52:12.964Z,7676.00
2022-09-28T11:53:12.970Z,7632.00
2022-09-28T11:54:13.025Z,7600.00
2022-09-28T11:55:13.013Z,7584.00
2022-09-28T11:56:13.030Z,7528.00
2022-09-28T11:57:12.887Z,7460.00
2022-09-28T11:58:13.446Z,7388.00
2022-09-28T11:59:12.967Z,7312.00
2022-09-28T12:00:12.934Z,7232.00
2022-09-28T12:01:17.992Z,7172.00
2022-09-28T12:02:13.115Z,7068.00
2022-09-28T12:03:12.940Z,6976.00
2022-09-28T12:04:13.059Z,6900.00
2022-09-28T12:05:14.905Z,6836.00
2022-09-28T12:06:13.003Z,6740.00
2022-09-28T12:07:13.070Z,6652.00
2022-09-28T12:08:12.911Z,6560.00
2022-09-28T12:09:12.789Z,6464.00
2022-09-28T12:10:12.777Z,6488.00
2022-09-28T12:11:13.371Z,6404.00
2022-09-28T12:12:12.640Z,6324.00
2022-09-28T12:13:12.674Z,6232.00
2022-09-28T12:14:12.643Z,6148.00
2022-09-28T12:15:12.616Z,6064.00
2022-09-28T12:16:32.815Z,5984.00
2022-09-28T12:17:16.488Z,5928.00
2022-09-28T12:18:12.643Z,5920.00
2022-09-28T12:19:12.584Z,5912.00
2022-09-28T12:20:12.548Z,5920.00
2022-09-28T12:21:12.521Z,5952.00
2022-09-28T12:22:12.523Z,5972.00
2022-09-28T12:23:12.504Z,5992.00
2022-09-28T12:24:12.495Z,6020.00
2022-09-28T12:25:12.528Z,6108.00
2022-09-28T12:26:12.466Z,6120.00
2022-09-28T12:27:12.452Z,6120.00